sensor_id;sensor_type;location;lat;lon;timestamp;pressure;altitude;pressure_sealevel;temperature;humidity
55550;BME280;41397;49.972;18.944;2023-04-04T00:00:43;102565.39;;;6.25;48.63
55550;BME280;41397;49.972;18.944;2023-04-04T00:03:49;102572.40;;;6.32;48.50
55550;BME280;41397;49.972;18.944;2023-04-04T00:06:51;102563.63;;;6.23;48.77
55550;BME280;41397;49.972;18.944;2023-04-04T00:09:53;102556.32;;;6.26;48.74
55550;BME280;41397;49.972;18.944;2023-04-04T00:12:55;102557.53;;;6.17;49.03
55550;BME280;41397;49.972;18.944;2023-04-04T00:15:57;102553.98;;;6.15;49.00
55550;BME280;41397;49.972;18.944;2023-04-04T00:18:58;102546.59;;;6.18;49.05
55550;BME280;41397;49.972;18.944;2023-04-04T00:22:00;102544.88;;;6.16;49.17
55550;BME280;41397;49.972;18.944;2023-04-04T00:25:01;102539.44;;;6.16;49.28
55550;BME280;41397;49.972;18.944;2023-04-04T00:28:03;102543.15;;;6.13;49.52
55550;BME280;41397;49.972;18.944;2023-04-04T00:31:05;102545.61;;;6.21;49.36
55550;BME280;41397;49.972;18.944;2023-04-04T00:34:07;102533.73;;;5.98;50.42
55550;BME280;41397;49.972;18.944;2023-04-04T00:37:08;102545.44;;;6.00;50.15
55550;BME280;41397;49.972;18.944;2023-04-04T00:40:13;102542.88;;;5.96;50.19
55550;BME280;41397;49.972;18.944;2023-04-04T00:43:14;102544.44;;;6.03;49.95
55550;BME280;41397;49.972;18.944;2023-04-04T00:46:17;102540.55;;;6.10;49.69
55550;BME280;41397;49.972;18.944;2023-04-04T00:49:19;102552.37;;;6.09;49.74
55550;BME280;41397;49.972;18.944;2023-04-04T00:52:21;102546.86;;;6.11;49.77
55550;BME280;41397;49.972;18.944;2023-04-04T00:55:24;102559.01;;;6.00;49.79
55550;BME280;41397;49.972;18.944;2023-04-04T00:58:27;102540.92;;;5.99;49.82
55550;BME280;41397;49.972;18.944;2023-04-04T01:01:29;102543.86;;;5.92;50.14
55550;BME280;41397;49.972;18.944;2023-04-04T01:04:33;102552.00;;;5.92;50.11
55550;BME280;41397;49.972;18.944;2023-04-04T01:07:35;102555.75;;;5.89;50.30
55550;BME280;41397;49.972;18.944;2023-04-04T01:10:38;102552.09;;;5.90;50.44
55550;BME280;41397;49.972;18.944;2023-04-04T01:13:40;102558.38;;;5.91;50.40
55550;BME280;41397;49.972;18.944;2023-04-04T01:16:50;102560.48;;;5.83;50.39
55550;BME280;41397;49.972;18.944;2023-04-04T01:23:05;102556.18;;;5.75;50.61
55550;BME280;41397;49.972;18.944;2023-04-04T01:26:07;102559.98;;;5.70;50.90
55550;BME280;41397;49.972;18.944;2023-04-04T01:29:09;102561.78;;;5.71;50.92
55550;BME280;41397;49.972;18.944;2023-04-04T01:32:15;102556.18;;;5.75;50.70
55550;BME280;41397;49.972;18.944;2023-04-04T01:41:47;102559.09;;;5.69;50.93
55550;BME280;41397;49.972;18.944;2023-04-04T01:44:58;102562.00;;;5.65;51.17
55550;BME280;41397;49.972;18.944;2023-04-04T01:47:59;102565.73;;;5.61;51.17
55550;BME280;41397;49.972;18.944;2023-04-04T01:51:01;102560.34;;;5.59;51.03
55550;BME280;41397;49.972;18.944;2023-04-04T01:54:03;102572.92;;;5.62;51.03
55550;BME280;41397;49.972;18.944;2023-04-04T01:57:04;102564.21;;;5.52;51.29
55550;BME280;41397;49.972;18.944;2023-04-04T02:00:06;102572.56;;;5.46;51.43
55550;BME280;41397;49.972;18.944;2023-04-04T02:03:09;102567.95;;;5.48;51.68
55550;BME280;41397;49.972;18.944;2023-04-04T02:06:10;102564.10;;;5.55;51.26
55550;BME280;41397;49.972;18.944;2023-04-04T02:09:13;102563.16;;;5.56;51.29
55550;BME280;41397;49.972;18.944;2023-04-04T02:12:14;102556.96;;;5.52;50.97
55550;BME280;41397;49.972;18.944;2023-04-04T02:15:16;102569.49;;;5.56;51.25
55550;BME280;41397;49.972;18.944;2023-04-04T02:18:19;102567.60;;;5.59;51.28
55550;BME280;41397;49.972;18.944;2023-04-04T02:21:20;102564.15;;;5.53;51.24
55550;BME280;41397;49.972;18.944;2023-04-04T02:24:22;102561.74;;;5.44;51.23
55550;BME280;41397;49.972;18.944;2023-04-04T02:27:23;102574.56;;;5.39;51.59
55550;BME280;41397;49.972;18.944;2023-04-04T02:30:25;102572.92;;;5.33;51.97
55550;BME280;41397;49.972;18.944;2023-04-04T02:33:27;102565.98;;;5.25;51.96
55550;BME280;41397;49.972;18.944;2023-04-04T02:36:28;102570.62;;;5.21;52.51
55550;BME280;41397;49.972;18.944;2023-04-04T02:39:30;102571.59;;;5.19;52.26
55550;BME280;41397;49.972;18.944;2023-04-04T02:42:31;102568.91;;;5.17;52.18
55550;BME280;41397;49.972;18.944;2023-04-04T02:45:32;102559.53;;;4.99;52.74
55550;BME280;41397;49.972;18.944;2023-04-04T02:48:34;102567.90;;;4.92;53.03
55550;BME280;41397;49.972;18.944;2023-04-04T02:51:36;102567.66;;;4.99;52.63
55550;BME280;41397;49.972;18.944;2023-04-04T02:54:37;102561.40;;;4.97;52.70
55550;BME280;41397;49.972;18.944;2023-04-04T02:57:39;102563.16;;;4.98;52.74
55550;BME280;41397;49.972;18.944;2023-04-04T03:00:41;102560.52;;;4.97;52.76
55550;BME280;41397;49.972;18.944;2023-04-04T03:03:42;102565.53;;;4.79;53.11
55550;BME280;41397;49.972;18.944;2023-04-04T03:06:44;102563.85;;;4.75;53.84
55550;BME280;41397;49.972;18.944;2023-04-04T03:09:48;102562.80;;;4.79;53.35
55550;BME280;41397;49.972;18.944;2023-04-04T03:12:49;102563.28;;;4.64;53.61
55550;BME280;41397;49.972;18.944;2023-04-04T03:16:03;102566.78;;;4.67;53.69
55550;BME280;41397;49.972;18.944;2023-04-04T03:19:06;102560.48;;;4.67;53.62
55550;BME280;41397;49.972;18.944;2023-04-04T03:22:08;102558.68;;;4.66;53.54
55550;BME280;41397;49.972;18.944;2023-04-04T03:25:09;102556.94;;;4.63;53.41
55550;BME280;41397;49.972;18.944;2023-04-04T03:28:11;102564.93;;;4.70;53.56
55550;BME280;41397;49.972;18.944;2023-04-04T03:31:13;102562.63;;;4.54;53.77
55550;BME280;41397;49.972;18.944;2023-04-04T03:34:14;102563.00;;;4.42;54.30
55550;BME280;41397;49.972;18.944;2023-04-04T03:37:17;102564.55;;;4.51;54.27
55550;BME280;41397;49.972;18.944;2023-04-04T03:40:20;102563.49;;;4.56;54.02
55550;BME280;41397;49.972;18.944;2023-04-04T03:43:22;102561.09;;;4.45;54.35
55550;BME280;41397;49.972;18.944;2023-04-04T03:46:23;102559.38;;;4.41;54.56
55550;BME280;41397;49.972;18.944;2023-04-04T03:49:25;102570.20;;;4.41;54.63
55550;BME280;41397;49.972;18.944;2023-04-04T03:52:27;102554.70;;;4.48;54.28
55550;BME280;41397;49.972;18.944;2023-04-04T03:55:28;102545.80;;;4.43;54.04
55550;BME280;41397;49.972;18.944;2023-04-04T03:58:30;102554.81;;;4.43;54.39
55550;BME280;41397;49.972;18.944;2023-04-04T04:05:02;102556.36;;;4.19;54.57
55550;BME280;41397;49.972;18.944;2023-04-04T04:08:04;102554.31;;;4.29;54.46
55550;BME280;41397;49.972;18.944;2023-04-04T04:11:06;102555.20;;;4.30;54.62
55550;BME280;41397;49.972;18.944;2023-04-04T04:14:08;102553.45;;;4.27;54.99
55550;BME280;41397;49.972;18.944;2023-04-04T04:17:09;102553.34;;;4.32;54.75
55550;BME280;41397;49.972;18.944;2023-04-04T04:20:11;102553.13;;;4.39;54.36
55550;BME280;41397;49.972;18.944;2023-04-04T04:23:13;102548.45;;;4.44;54.23
55550;BME280;41397;49.972;18.944;2023-04-04T04:26:20;102539.36;;;4.47;54.20
55550;BME280;41397;49.972;18.944;2023-04-04T04:39:55;102548.53;;;4.41;54.14
55550;BME280;41397;49.972;18.944;2023-04-04T04:42:57;102552.22;;;4.39;54.06
55550;BME280;41397;49.972;18.944;2023-04-04T04:52:59;102541.82;;;4.56;53.83
55550;BME280;41397;49.972;18.944;2023-04-04T04:56:01;102551.69;;;4.59;53.72
55550;BME280;41397;49.972;18.944;2023-04-04T04:59:05;102546.95;;;4.34;54.09
55550;BME280;41397;49.972;18.944;2023-04-04T05:02:08;102551.99;;;4.48;53.76
55550;BME280;41397;49.972;18.944;2023-04-04T05:05:10;102542.70;;;4.57;53.43
55550;BME280;41397;49.972;18.944;2023-04-04T05:08:12;102548.45;;;4.44;53.39
55550;BME280;41397;49.972;18.944;2023-04-04T05:11:27;102549.18;;;4.51;53.69
55550;BME280;41397;49.972;18.944;2023-04-04T05:14:48;102553.26;;;4.66;53.19
55550;BME280;41397;49.972;18.944;2023-04-04T05:17:53;102551.27;;;4.73;53.13
55550;BME280;41397;49.972;18.944;2023-04-04T05:20:55;102545.55;;;4.83;52.90
55550;BME280;41397;49.972;18.944;2023-04-04T05:23:57;102544.79;;;4.78;52.39
55550;BME280;41397;49.972;18.944;2023-04-04T05:27:00;102547.28;;;4.86;52.88
55550;BME280;41397;49.972;18.944;2023-04-04T05:30:02;102547.74;;;5.00;52.45
55550;BME280;41397;49.972;18.944;2023-04-04T05:33:04;102548.59;;;5.02;52.49
55550;BME280;41397;49.972;18.944;2023-04-04T05:36:06;102554.25;;;4.95;52.28
55550;BME280;41397;49.972;18.944;2023-04-04T05:39:08;102559.67;;;4.95;52.31
55550;BME280;41397;49.972;18.944;2023-04-04T05:42:12;102567.41;;;5.07;52.33
55550;BME280;41397;49.972;18.944;2023-04-04T05:45:17;102571.83;;;5.11;51.32
55550;BME280;41397;49.972;18.944;2023-04-04T05:48:19;102571.59;;;5.19;51.80
55550;BME280;41397;49.972;18.944;2023-04-04T05:51:26;102582.14;;;5.28;51.27
55550;BME280;41397;49.972;18.944;2023-04-04T05:54:27;102573.98;;;5.29;51.07
55550;BME280;41397;49.972;18.944;2023-04-04T05:57:34;102574.23;;;5.20;51.73
55550;BME280;41397;49.972;18.944;2023-04-04T06:00:35;102576.11;;;5.18;52.09
55550;BME280;41397;49.972;18.944;2023-04-04T06:03:38;102569.42;;;5.30;50.85
55550;BME280;41397;49.972;18.944;2023-04-04T06:06:40;102574.63;;;5.38;50.84
55550;BME280;41397;49.972;18.944;2023-04-04T06:09:42;102582.84;;;5.34;50.88
55550;BME280;41397;49.972;18.944;2023-04-04T06:12:43;102577.27;;;5.39;50.86
55550;BME280;41397;49.972;18.944;2023-04-04T06:15:45;102578.13;;;5.41;50.11
55550;BME280;41397;49.972;18.944;2023-04-04T06:18:46;102581.23;;;5.57;50.08
55550;BME280;41397;49.972;18.944;2023-04-04T06:21:51;102579.73;;;5.48;49.32
55550;BME280;41397;49.972;18.944;2023-04-04T06:25:01;102579.20;;;5.64;49.32
55550;BME280;41397;49.972;18.944;2023-04-04T06:28:03;102573.56;;;5.70;48.75
55550;BME280;41397;49.972;18.944;2023-04-04T06:31:05;102566.41;;;5.67;48.58
55550;BME280;41397;49.972;18.944;2023-04-04T06:34:07;102575.48;;;5.66;48.60
55550;BME280;41397;49.972;18.944;2023-04-04T06:37:08;102576.91;;;5.78;48.91
55550;BME280;41397;49.972;18.944;2023-04-04T06:40:10;102572.40;;;5.78;48.32
55550;BME280;41397;49.972;18.944;2023-04-04T06:43:11;102574.61;;;5.94;48.17
55550;BME280;41397;49.972;18.944;2023-04-04T06:46:13;102574.61;;;5.94;47.60
55550;BME280;41397;49.972;18.944;2023-04-04T06:49:15;102578.13;;;5.97;47.50
55550;BME280;41397;49.972;18.944;2023-04-04T06:52:16;102571.16;;;6.15;47.28
55550;BME280;41397;49.972;18.944;2023-04-04T06:55:18;102570.45;;;6.35;46.44
55550;BME280;41397;49.972;18.944;2023-04-04T06:58:19;102573.73;;;6.45;46.21
55550;BME280;41397;49.972;18.944;2023-04-04T07:01:21;102581.31;;;6.35;45.99
55550;BME280;41397;49.972;18.944;2023-04-04T07:04:23;102565.36;;;6.51;45.97
55550;BME280;41397;49.972;18.944;2023-04-04T07:07:25;102574.13;;;6.34;45.46
55550;BME280;41397;49.972;18.944;2023-04-04T07:10:27;102561.00;;;6.71;45.67
55550;BME280;41397;49.972;18.944;2023-04-04T07:13:28;102569.66;;;7.05;44.85
55550;BME280;41397;49.972;18.944;2023-04-04T07:16:30;102571.73;;;7.22;44.35
55550;BME280;41397;49.972;18.944;2023-04-04T07:19:31;102558.50;;;7.59;44.36
55550;BME280;41397;49.972;18.944;2023-04-04T07:22:36;102560.12;;;7.85;43.73
55550;BME280;41397;49.972;18.944;2023-04-04T07:25:49;102554.67;;;8.27;42.84
55550;BME280;41397;49.972;18.944;2023-04-04T07:28:54;102561.24;;;8.43;41.34
55550;BME280;41397;49.972;18.944;2023-04-04T07:31:58;102553.45;;;8.75;41.30
55550;BME280;41397;49.972;18.944;2023-04-04T07:35:00;102553.91;;;8.85;40.38
55550;BME280;41397;49.972;18.944;2023-04-04T07:38:05;102553.64;;;9.10;40.03
55550;BME280;41397;49.972;18.944;2023-04-04T07:41:07;102556.68;;;9.42;40.01
55550;BME280;41397;49.972;18.944;2023-04-04T07:44:11;102565.75;;;9.42;38.72
55550;BME280;41397;49.972;18.944;2023-04-04T07:47:13;102555.48;;;9.47;38.48
55550;BME280;41397;49.972;18.944;2023-04-04T07:50:15;102557.03;;;9.34;37.99
55550;BME280;41397;49.972;18.944;2023-04-04T07:53:17;102560.13;;;9.45;38.28
55550;BME280;41397;49.972;18.944;2023-04-04T07:56:21;102546.25;;;9.50;39.35
55550;BME280;41397;49.972;18.944;2023-04-04T07:59:22;102551.38;;;9.75;38.74
55550;BME280;41397;49.972;18.944;2023-04-04T08:02:24;102548.76;;;9.91;38.34
55550;BME280;41397;49.972;18.944;2023-04-04T08:05:26;102542.65;;;10.03;37.46
55550;BME280;41397;49.972;18.944;2023-04-04T08:08:30;102543.79;;;10.16;36.72
55550;BME280;41397;49.972;18.944;2023-04-04T08:11:32;102544.23;;;9.72;36.62
55550;BME280;41397;49.972;18.944;2023-04-04T08:14:37;102534.23;;;9.90;37.62
55550;BME280;41397;49.972;18.944;2023-04-04T08:17:44;102547.79;;;10.09;36.45
55550;BME280;41397;49.972;18.944;2023-04-04T08:20:49;102534.55;;;10.19;36.61
55550;BME280;41397;49.972;18.944;2023-04-04T08:23:51;102534.05;;;10.11;36.52
55550;BME280;41397;49.972;18.944;2023-04-04T08:26:52;102530.60;;;10.42;36.30
55550;BME280;41397;49.972;18.944;2023-04-04T08:29:54;102534.45;;;10.73;36.10
55550;BME280;41397;49.972;18.944;2023-04-04T08:32:56;102526.41;;;10.70;34.92
55550;BME280;41397;49.972;18.944;2023-04-04T08:35:58;102533.30;;;10.77;34.87
55550;BME280;41397;49.972;18.944;2023-04-04T08:38:59;102530.20;;;10.67;32.79
55550;BME280;41397;49.972;18.944;2023-04-04T08:42:03;102516.17;;;10.73;33.00
55550;BME280;41397;49.972;18.944;2023-04-04T08:45:07;102521.27;;;10.97;33.94
55550;BME280;41397;49.972;18.944;2023-04-04T08:48:14;102515.50;;;11.01;33.10
55550;BME280;41397;49.972;18.944;2023-04-04T08:51:19;102517.26;;;10.86;31.82
55550;BME280;41397;49.972;18.944;2023-04-04T08:54:24;102510.70;;;10.73;32.37
55550;BME280;41397;49.972;18.944;2023-04-04T08:57:28;102505.97;;;10.93;31.73
55550;BME280;41397;49.972;18.944;2023-04-04T09:00:30;102525.30;;;10.89;31.63
55550;BME280;41397;49.972;18.944;2023-04-04T09:03:32;102520.88;;;10.87;30.68
55550;BME280;41397;49.972;18.944;2023-04-04T09:06:36;102518.86;;;10.57;31.11
55550;BME280;41397;49.972;18.944;2023-04-04T09:09:39;102509.05;;;10.53;30.70
55550;BME280;41397;49.972;18.944;2023-04-04T09:12:44;102517.27;;;10.53;31.52
55550;BME280;41397;49.972;18.944;2023-04-04T09:15:52;102520.30;;;10.64;31.11
55550;BME280;41397;49.972;18.944;2023-04-04T09:18:57;102506.91;;;10.76;30.82
55550;BME280;41397;49.972;18.944;2023-04-04T09:21:59;102515.50;;;11.01;32.12
55550;BME280;41397;49.972;18.944;2023-04-04T09:25:01;102512.32;;;10.93;31.88
55550;BME280;41397;49.972;18.944;2023-04-04T09:28:08;102501.65;;;11.04;31.67
55550;BME280;41397;49.972;18.944;2023-04-04T09:31:10;102510.77;;;11.05;32.08
55550;BME280;41397;49.972;18.944;2023-04-04T09:34:14;102519.73;;;10.91;31.59
55550;BME280;41397;49.972;18.944;2023-04-04T09:37:16;102522.81;;;10.85;31.93
55550;BME280;41397;49.972;18.944;2023-04-04T09:40:18;102511.79;;;10.86;32.10
55550;BME280;41397;49.972;18.944;2023-04-04T09:43:23;102525.02;;;10.78;32.54
55550;BME280;41397;49.972;18.944;2023-04-04T09:46:25;102513.80;;;10.83;31.26
55550;BME280;41397;49.972;18.944;2023-04-04T09:49:30;102507.27;;;10.85;32.31
55550;BME280;41397;49.972;18.944;2023-04-04T09:52:36;102518.79;;;10.92;32.08
55550;BME280;41397;49.972;18.944;2023-04-04T09:55:37;102516.56;;;10.99;31.86
55550;BME280;41397;49.972;18.944;2023-04-04T09:58:40;102516.99;;;10.91;31.45
55550;BME280;41397;49.972;18.944;2023-04-04T10:01:41;102503.76;;;10.83;31.76
55550;BME280;41397;49.972;18.944;2023-04-04T10:04:46;102506.27;;;10.71;31.07
55550;BME280;41397;49.972;18.944;2023-04-04T10:07:48;102504.92;;;10.95;32.30
55550;BME280;41397;49.972;18.944;2023-04-04T10:10:59;102496.18;;;10.88;31.38
55550;BME280;41397;49.972;18.944;2023-04-04T10:14:02;102496.63;;;10.97;31.48
55550;BME280;41397;49.972;18.944;2023-04-04T10:17:07;102499.23;;;10.82;30.89
55550;BME280;41397;49.972;18.944;2023-04-04T10:20:13;102494.98;;;10.77;31.30
55550;BME280;41397;49.972;18.944;2023-04-04T10:23:20;102495.09;;;10.91;31.36
55550;BME280;41397;49.972;18.944;2023-04-04T10:26:24;102490.45;;;11.09;31.54
55550;BME280;41397;49.972;18.944;2023-04-04T10:29:26;102501.48;;;11.07;30.66
55550;BME280;41397;49.972;18.944;2023-04-04T10:35:43;102493.43;;;11.04;31.00
55550;BME280;41397;49.972;18.944;2023-04-04T10:42:00;102475.96;;;11.23;32.40
55550;BME280;41397;49.972;18.944;2023-04-04T10:45:09;102477.38;;;11.14;30.68
55550;BME280;41397;49.972;18.944;2023-04-04T10:48:11;102476.66;;;11.26;30.05
55550;BME280;41397;49.972;18.944;2023-04-04T10:51:14;102469.94;;;11.32;31.49
55550;BME280;41397;49.972;18.944;2023-04-04T10:54:16;102465.63;;;11.44;31.76
55550;BME280;41397;49.972;18.944;2023-04-04T10:57:18;102470.13;;;11.29;31.56
55550;BME280;41397;49.972;18.944;2023-04-04T11:00:21;102467.55;;;11.10;30.96
55550;BME280;41397;49.972;18.944;2023-04-04T11:03:26;102467.23;;;11.16;31.18
55550;BME280;41397;49.972;18.944;2023-04-04T11:09:47;102449.18;;;11.44;31.36
55550;BME280;41397;49.972;18.944;2023-04-04T11:12:53;102462.18;;;11.24;30.43
55550;BME280;41397;49.972;18.944;2023-04-04T11:16:06;102464.56;;;11.15;30.53
55550;BME280;41397;49.972;18.944;2023-04-04T11:19:19;102459.45;;;11.24;30.73
55550;BME280;41397;49.972;18.944;2023-04-04T11:22:21;102463.33;;;10.88;30.67
55550;BME280;41397;49.972;18.944;2023-04-04T11:25:33;102457.41;;;11.12;30.44
55550;BME280;41397;49.972;18.944;2023-04-04T11:28:42;102462.44;;;11.20;30.19
55550;BME280;41397;49.972;18.944;2023-04-04T11:31:48;102459.96;;;11.31;30.76
55550;BME280;41397;49.972;18.944;2023-04-04T11:34:51;102456.46;;;11.13;30.53
55550;BME280;41397;49.972;18.944;2023-04-04T11:37:58;102458.83;;;11.19;31.16
55550;BME280;41397;49.972;18.944;2023-04-04T11:41:01;102450.98;;;11.13;30.06
55550;BME280;41397;49.972;18.944;2023-04-04T11:44:09;102440.80;;;11.31;31.18
55550;BME280;41397;49.972;18.944;2023-04-04T11:47:16;102439.02;;;11.46;30.25
55550;BME280;41397;49.972;18.944;2023-04-04T11:50:21;102450.07;;;11.28;29.79
55550;BME280;41397;49.972;18.944;2023-04-04T11:53:23;102454.49;;;11.15;29.96
55550;BME280;41397;49.972;18.944;2023-04-04T11:56:32;102442.41;;;11.19;30.38
55550;BME280;41397;49.972;18.944;2023-04-04T11:59:40;102454.21;;;10.88;31.52
55550;BME280;41397;49.972;18.944;2023-04-04T12:02:45;102446.27;;;10.99;31.77
55550;BME280;41397;49.972;18.944;2023-04-04T12:05:52;102463.43;;;11.03;32.00
55550;BME280;41397;49.972;18.944;2023-04-04T12:08:56;102451.60;;;11.02;31.26
55550;BME280;41397;49.972;18.944;2023-04-04T12:11:59;102453.53;;;11.00;31.75
55550;BME280;41397;49.972;18.944;2023-04-04T12:15:06;102452.91;;;11.11;31.59
55550;BME280;41397;49.972;18.944;2023-04-04T12:18:08;102455.80;;;11.24;31.40
55550;BME280;41397;49.972;18.944;2023-04-04T12:21:10;102451.58;;;11.18;30.98
55550;BME280;41397;49.972;18.944;2023-04-04T12:24:13;102447.51;;;11.25;31.64
55550;BME280;41397;49.972;18.944;2023-04-04T12:27:14;102450.18;;;11.27;30.84
55550;BME280;41397;49.972;18.944;2023-04-04T12:30:17;102462.80;;;11.14;30.50
55550;BME280;41397;49.972;18.944;2023-04-04T12:33:20;102451.05;;;11.11;30.84
55550;BME280;41397;49.972;18.944;2023-04-04T12:36:28;102459.09;;;11.15;30.92
55550;BME280;41397;49.972;18.944;2023-04-04T12:39:31;102458.47;;;11.09;30.55
55550;BME280;41397;49.972;18.944;2023-04-04T12:42:33;102475.67;;;10.96;30.89
55550;BME280;41397;49.972;18.944;2023-04-04T12:45:37;102472.45;;;10.56;30.69
55550;BME280;41397;49.972;18.944;2023-04-04T12:48:39;102468.91;;;10.54;31.57
55550;BME280;41397;49.972;18.944;2023-04-04T12:51:43;102465.13;;;10.56;31.83
55550;BME280;41397;49.972;18.944;2023-04-04T12:54:46;102473.28;;;10.40;31.61
55550;BME280;41397;49.972;18.944;2023-04-04T12:57:49;102468.23;;;10.15;31.73
55550;BME280;41397;49.972;18.944;2023-04-04T13:00:52;102472.46;;;10.38;32.88
55550;BME280;41397;49.972;18.944;2023-04-04T13:03:57;102460.06;;;10.49;33.45
55550;BME280;41397;49.972;18.944;2023-04-04T13:07:00;102449.94;;;10.66;33.75
55550;BME280;41397;49.972;18.944;2023-04-04T13:10:05;102457.09;;;10.53;33.72
55550;BME280;41397;49.972;18.944;2023-04-04T13:13:29;102457.20;;;10.68;32.43
55550;BME280;41397;49.972;18.944;2023-04-04T13:16:33;102456.85;;;10.74;32.25
55550;BME280;41397;49.972;18.944;2023-04-04T13:19:37;102465.23;;;10.71;31.86
55550;BME280;41397;49.972;18.944;2023-04-04T13:22:40;102464.94;;;10.59;32.66
55550;BME280;41397;49.972;18.944;2023-04-04T13:25:42;102468.03;;;10.53;33.32
55550;BME280;41397;49.972;18.944;2023-04-04T13:28:43;102463.89;;;10.62;33.95
55550;BME280;41397;49.972;18.944;2023-04-04T13:31:45;102470.95;;;10.66;34.14
55550;BME280;41397;49.972;18.944;2023-04-04T13:34:47;102470.84;;;10.52;33.99
55550;BME280;41397;49.972;18.944;2023-04-04T13:37:49;102465.41;;;10.34;34.36
55550;BME280;41397;49.972;18.944;2023-04-04T13:40:50;102463.84;;;10.46;34.47
55550;BME280;41397;49.972;18.944;2023-04-04T13:43:54;102459.66;;;10.56;34.26
55550;BME280;41397;49.972;18.944;2023-04-04T13:46:56;102454.81;;;10.61;34.48
55550;BME280;41397;49.972;18.944;2023-04-04T13:49:58;102445.02;;;10.73;34.18
55550;BME280;41397;49.972;18.944;2023-04-04T13:53:00;102461.68;;;10.69;34.45
55550;BME280;41397;49.972;18.944;2023-04-04T13:56:01;102457.09;;;10.53;34.43
55550;BME280;41397;49.972;18.944;2023-04-04T13:59:02;102450.63;;;10.54;35.20
55550;BME280;41397;49.972;18.944;2023-04-04T14:02:04;102458.77;;;10.56;35.05
55550;BME280;41397;49.972;18.944;2023-04-04T14:05:06;102447.48;;;10.62;35.01
55550;BME280;41397;49.972;18.944;2023-04-04T14:08:08;102435.34;;;10.50;34.74
55550;BME280;41397;49.972;18.944;2023-04-04T14:11:10;102437.94;;;10.53;35.04
55550;BME280;41397;49.972;18.944;2023-04-04T14:14:11;102433.34;;;10.54;35.21
55550;BME280;41397;49.972;18.944;2023-04-04T14:17:18;102437.13;;;10.51;34.79
55550;BME280;41397;49.972;18.944;2023-04-04T14:20:19;102427.13;;;10.50;34.50
55550;BME280;41397;49.972;18.944;2023-04-04T14:23:21;102424.40;;;10.50;34.23
55550;BME280;41397;49.972;18.944;2023-04-04T14:26:26;102427.37;;;10.30;34.49
55550;BME280;41397;49.972;18.944;2023-04-04T14:29:30;102426.47;;;10.12;34.08
55550;BME280;41397;49.972;18.944;2023-04-04T14:32:31;102431.16;;;10.10;34.05
55550;BME280;41397;49.972;18.944;2023-04-04T14:35:40;102445.94;;;10.06;33.91
55550;BME280;41397;49.972;18.944;2023-04-04T14:38:41;102442.09;;;9.92;33.82
55550;BME280;41397;49.972;18.944;2023-04-04T14:41:46;102433.66;;;9.80;33.86
55550;BME280;41397;49.972;18.944;2023-04-04T14:44:47;102429.48;;;9.72;34.28
55550;BME280;41397;49.972;18.944;2023-04-04T14:47:49;102438.15;;;9.81;33.94
55550;BME280;41397;49.972;18.944;2023-04-04T14:50:53;102439.26;;;9.76;33.55
55550;BME280;41397;49.972;18.944;2023-04-04T14:53:58;102443.03;;;9.56;33.72
55550;BME280;41397;49.972;18.944;2023-04-04T14:57:01;102439.80;;;9.48;34.30
55550;BME280;41397;49.972;18.944;2023-04-04T15:00:06;102452.75;;;9.45;33.95
55550;BME280;41397;49.972;18.944;2023-04-04T15:03:15;102457.92;;;9.32;34.18
55550;BME280;41397;49.972;18.944;2023-04-04T15:06:16;102445.75;;;9.39;34.33
55550;BME280;41397;49.972;18.944;2023-04-04T15:09:18;102449.70;;;9.51;34.36
55550;BME280;41397;49.972;18.944;2023-04-04T15:12:19;102448.01;;;9.48;34.28
55550;BME280;41397;49.972;18.944;2023-04-04T15:15:22;102446.08;;;9.50;34.12
55550;BME280;41397;49.972;18.944;2023-04-04T15:18:30;102448.98;;;9.47;34.28
55550;BME280;41397;49.972;18.944;2023-04-04T15:21:31;102443.68;;;9.44;34.03
55550;BME280;41397;49.972;18.944;2023-04-04T15:24:33;102453.45;;;9.48;34.35
55550;BME280;41397;49.972;18.944;2023-04-04T15:27:35;102441.10;;;9.41;33.88
55550;BME280;41397;49.972;18.944;2023-04-04T15:30:36;102450.95;;;9.44;33.91
55550;BME280;41397;49.972;18.944;2023-04-04T15:33:38;102461.54;;;9.32;33.64
55550;BME280;41397;49.972;18.944;2023-04-04T15:36:40;102462.73;;;9.27;33.65
55550;BME280;41397;49.972;18.944;2023-04-04T15:39:44;102465.32;;;9.11;33.60
55550;BME280;41397;49.972;18.944;2023-04-04T15:42:49;102468.96;;;9.11;33.67
55550;BME280;41397;49.972;18.944;2023-04-04T15:45:52;102474.34;;;8.94;33.62
55550;BME280;41397;49.972;18.944;2023-04-04T15:48:53;102468.97;;;8.93;34.07
55550;BME280;41397;49.972;18.944;2023-04-04T15:51:56;102475.50;;;8.70;34.31
55550;BME280;41397;49.972;18.944;2023-04-04T15:54:57;102483.63;;;8.71;34.38
55550;BME280;41397;49.972;18.944;2023-04-04T15:57:59;102481.42;;;8.79;34.26
55550;BME280;41397;49.972;18.944;2023-04-04T16:01:01;102484.59;;;8.89;34.24
55550;BME280;41397;49.972;18.944;2023-04-04T16:04:05;102485.34;;;8.93;34.08
55550;BME280;41397;49.972;18.944;2023-04-04T16:07:07;102490.71;;;8.94;33.99
55550;BME280;41397;49.972;18.944;2023-04-04T16:10:09;102484.47;;;8.92;33.80
55550;BME280;41397;49.972;18.944;2023-04-04T16:13:12;102502.43;;;8.77;33.99
55550;BME280;41397;49.972;18.944;2023-04-04T16:16:14;102499.13;;;8.71;34.11
55550;BME280;41397;49.972;18.944;2023-04-04T16:19:16;102494.16;;;8.60;33.88
55550;BME280;41397;49.972;18.944;2023-04-04T16:22:18;102498.40;;;8.47;33.88
55550;BME280;41397;49.972;18.944;2023-04-04T16:25:20;102498.05;;;8.54;34.00
55550;BME280;41397;49.972;18.944;2023-04-04T16:28:22;102501.33;;;8.42;34.01
55550;BME280;41397;49.972;18.944;2023-04-04T16:31:23;102494.94;;;8.43;34.06